Time;durP1;ratioP1;P1;durP2;ratioP2;P2;SDS_P1;SDS_P2;PMS_P1;PMS_P2;Temp;Humidity;BMP_temperature;BMP_pressure;BME280_temperature;BME280_humidity;BME280_pressure;Samples;Min_cycle;Max_cycle;Signal;HPM_P1;HPM_P2
2022/05/04 00:00:09;;;;;;;12.23;5.00;;;;;;;-144.47;48.56;53233.47;5043362;28;20485;-73
2022/05/04 00:02:36;;;;;;;15.35;5.65;;;;;;;-144.47;48.86;53249.38;5027724;28;20494;-69
2022/05/04 00:05:02;;;;;;;12.00;5.15;;;;;;;-144.47;48.83;53249.38;5046926;28;20032;-72
2022/05/04 00:07:27;;;;;;;13.43;5.32;;;;;;;-144.47;49.01;53269.22;5023264;28;20417;-69
2022/05/04 00:09:57;;;;;;;12.77;5.35;;;;;;;-144.47;48.98;53251.34;5047161;28;20119;-68
2022/05/04 00:12:23;;;;;;;16.15;5.57;;;;;;;-144.47;49.20;53225.53;5045950;28;20041;-71
2022/05/04 00:14:48;;;;;;;9.45;5.20;;;;;;;-144.47;49.60;53233.47;5047894;28;20033;-72
2022/05/04 00:17:13;;;;;;;10.85;5.05;;;;;;;-144.47;49.38;53247.38;5046730;28;20075;-70
2022/05/04 00:19:38;;;;;;;9.80;5.30;;;;;;;-144.47;49.62;53281.16;5045939;28;20025;-72
2022/05/04 00:22:04;;;;;;;10.02;4.85;;;;;;;-144.47;49.90;53265.25;5046393;28;20047;-71
2022/05/04 00:24:29;;;;;;;12.23;5.65;;;;;;;-144.47;50.07;53287.13;5046289;28;20033;-73
2022/05/04 00:26:55;;;;;;;11.02;5.95;;;;;;;-144.47;50.52;53269.22;5045704;28;20044;-70
2022/05/04 00:29:20;;;;;;;11.35;5.80;;;;;;;-144.47;50.74;53249.38;5045358;28;20132;-70
2022/05/04 00:31:45;;;;;;;17.65;5.63;;;;;;;-144.47;51.08;53229.50;5045797;28;20025;-69
2022/05/04 00:34:10;;;;;;;12.77;5.75;;;;;;;-144.47;51.22;53283.13;5046221;28;20400;-72
2022/05/04 00:36:36;;;;;;;14.10;5.10;;;;;;;-144.47;51.44;53271.22;5046571;28;20119;-72
2022/05/04 00:39:01;;;;;;;9.00;5.05;;;;;;;-144.47;51.37;53263.28;5046285;28;20474;-71
2022/05/04 00:41:27;;;;;;;14.88;5.82;;;;;;;-144.47;51.77;53265.25;5045542;28;20036;-71
2022/05/04 00:43:53;;;;;;;14.13;6.30;;;;;;;-144.47;52.24;53273.22;5044089;28;20033;-69
2022/05/04 00:46:19;;;;;;;17.20;6.40;;;;;;;-144.47;52.43;53247.38;5047365;28;20127;-70
2022/05/04 00:48:45;;;;;;;11.20;5.70;;;;;;;-144.47;52.96;53269.22;5049979;28;20539;-67
2022/05/04 00:51:10;;;;;;;19.00;7.10;;;;;;;-144.47;53.21;53305.00;5049620;28;20037;-71
2022/05/04 00:53:37;;;;;;;11.20;6.13;;;;;;;-144.47;53.56;53316.91;5049512;28;20446;-71
2022/05/04 00:56:04;;;;;;;13.32;6.50;;;;;;;-144.47;53.63;53261.28;5049635;28;20168;-69
2022/05/04 01:01:16;;;;;;;13.40;6.53;;;;;;;-144.47;54.05;53291.09;5047599;28;20094;-71
2022/05/04 01:03:42;;;;;;;12.10;6.25;;;;;;;-144.47;54.28;53283.13;5032011;28;20767;-72
2022/05/04 01:06:07;;;;;;;14.50;6.47;;;;;;;-144.47;54.33;53338.75;5031356;28;20036;-70
2022/05/04 01:08:32;;;;;;;13.98;6.85;;;;;;;-144.47;54.50;53275.19;5031912;28;20024;-70
2022/05/04 01:10:58;;;;;;;12.05;6.35;;;;;;;-144.47;54.61;53291.09;5049105;28;20029;-71
2022/05/04 01:13:23;;;;;;;11.80;6.50;;;;;;;-144.47;54.90;53289.09;5049443;28;20040;-71
2022/05/04 01:15:49;;;;;;;13.30;6.47;;;;;;;-144.47;55.22;53293.06;5049136;28;20484;-72
2022/05/04 01:18:15;;;;;;;16.15;7.22;;;;;;;-144.47;55.25;53271.22;5049643;28;20047;-70
2022/05/04 01:20:41;;;;;;;13.65;6.43;;;;;;;-144.47;55.30;53265.25;5049006;28;20037;-71
2022/05/04 01:23:06;;;;;;;15.85;6.97;;;;;;;-144.47;55.53;53277.19;5049398;28;20458;-70
2022/05/04 01:25:31;;;;;;;14.82;6.82;;;;;;;-144.47;55.40;53283.13;5049122;28;20108;-68
2022/05/04 01:27:57;;;;;;;13.00;7.07;;;;;;;-144.47;55.45;53303.00;5049817;28;20066;-69
2022/05/04 01:30:23;;;;;;;13.13;7.15;;;;;;;-144.47;55.52;53293.06;5046226;28;20048;-68
2022/05/04 01:32:48;;;;;;;14.27;7.15;;;;;;;-144.47;55.55;53303.00;5048080;28;20025;-69
2022/05/04 01:35:14;;;;;;;14.30;7.35;;;;;;;-144.47;55.63;53332.81;5049440;28;20091;-67
2022/05/04 01:37:40;;;;;;;15.55;6.57;;;;;;;-144.47;55.78;53301.03;5039894;28;20028;-70
2022/05/04 01:40:06;;;;;;;13.80;6.95;;;;;;;-144.47;55.95;53320.88;5049916;28;20381;-68
2022/05/04 01:42:32;;;;;;;14.40;7.15;;;;;;;-144.47;55.86;53308.97;5029269;28;20510;-70
2022/05/04 01:44:57;;;;;;;23.40;7.43;;;;;;;-144.47;56.09;53299.03;5030841;28;20037;-70
2022/05/04 01:47:23;;;;;;;17.90;7.35;;;;;;;-144.47;56.29;53289.09;5049648;28;20048;-68
2022/05/04 01:49:48;;;;;;;17.50;7.15;;;;;;;-144.47;56.30;53283.13;5049789;28;20033;-71
2022/05/04 01:52:13;;;;;;;14.23;6.97;;;;;;;-144.47;56.23;53285.13;5049220;28;20009;-67
2022/05/04 01:54:39;;;;;;;18.67;7.07;;;;;;;-144.47;56.63;53257.31;5051685;28;20108;-70
2022/05/04 01:57:04;;;;;;;15.73;7.43;;;;;;;-144.47;57.03;53332.81;5048425;28;20486;-71
2022/05/04 01:59:30;;;;;;;15.35;8.15;;;;;;;-144.47;57.31;53291.09;5030925;28;20036;-72
2022/05/04 02:01:55;;;;;;;15.82;7.93;;;;;;;-144.47;57.50;53293.06;5049043;28;20059;-69
2022/05/04 02:04:22;;;;;;;15.27;8.30;;;;;;;-144.47;57.72;53291.09;5048878;28;20047;-71
2022/05/04 02:06:47;;;;;;;16.33;8.02;;;;;;;-144.47;58.01;53295.06;5047807;28;20017;-71
2022/05/04 02:09:13;;;;;;;21.88;8.73;;;;;;;-144.47;58.31;53245.41;5028996;28;20428;-68
2022/05/04 02:11:39;;;;;;;16.02;8.32;;;;;;;-144.47;58.02;53303.00;5048053;28;20462;-71
2022/05/04 02:14:04;;;;;;;15.55;8.10;;;;;;;-144.47;58.23;53283.13;5047804;28;20025;-69
2022/05/04 02:16:31;;;;;;;18.75;9.30;;;;;;;-144.47;58.29;53326.84;5047830;28;20027;-70
2022/05/04 02:18:57;;;;;;;20.15;9.80;;;;;;;-144.47;58.34;53301.03;5048399;28;20519;-69
2022/05/04 02:21:23;;;;;;;19.35;8.77;;;;;;;-144.47;58.34;53273.22;5044994;28;20111;-68
2022/05/04 02:23:48;;;;;;;25.50;9.18;;;;;;;-144.47;58.60;53303.00;5047777;28;20431;-71
2022/05/04 02:26:14;;;;;;;20.65;9.25;;;;;;;-144.47;58.73;53277.19;5047684;28;20029;-71
2022/05/04 02:28:39;;;;;;;20.98;8.65;;;;;;;-144.47;58.72;53271.22;5046090;28;20039;-70
2022/05/04 02:31:04;;;;;;;19.00;8.40;;;;;;;-144.47;58.91;53316.91;5045851;28;20063;-69
2022/05/04 02:33:30;;;;;;;22.63;9.18;;;;;;;-144.47;59.04;53322.88;5047862;28;20052;-70
2022/05/04 02:38:39;;;;;;;21.95;9.82;;;;;;;-144.47;59.03;53310.94;5047788;28;20082;-71
2022/05/04 02:41:04;;;;;;;17.42;9.48;;;;;;;-144.47;59.09;53287.13;5047621;28;20025;-69
2022/05/04 02:43:30;;;;;;;22.40;9.90;;;;;;;-144.47;59.15;53303.00;5047449;28;20156;-71
2022/05/04 02:45:57;;;;;;;20.77;9.75;;;;;;;-144.47;59.15;53318.91;5048212;28;20015;-71
2022/05/04 02:48:22;;;;;;;19.33;9.55;;;;;;;-144.47;59.19;53330.81;5047659;28;20043;-70
2022/05/04 02:50:48;;;;;;;20.35;9.68;;;;;;;-144.47;59.42;53320.88;5027726;28;20037;-70
2022/05/04 02:53:13;;;;;;;20.63;9.48;;;;;;;-144.47;59.51;53305.00;5047292;28;20090;-68
2022/05/04 02:55:38;;;;;;;17.73;9.27;;;;;;;-144.47;59.61;53275.19;5047639;28;20029;-70
2022/05/04 02:58:04;;;;;;;20.83;10.00;;;;;;;-144.47;59.42;53318.91;5047408;28;20036;-68
2022/05/04 03:00:29;;;;;;;24.25;10.00;;;;;;;-144.47;59.58;53297.03;5047880;28;20089;-70
2022/05/04 03:02:55;;;;;;;24.90;9.55;;;;;;;-144.47;59.75;53318.91;5046450;28;21257;-69
2022/05/04 03:05:21;;;;;;;26.30;10.15;;;;;;;-144.47;59.60;53301.03;5047265;28;20101;-69
2022/05/04 03:07:46;;;;;;;22.02;10.52;;;;;;;-144.47;59.72;53348.69;5046673;28;20025;-67
2022/05/04 03:10:13;;;;;;;28.02;10.20;;;;;;;-144.47;59.59;53336.78;5046776;28;20362;-71
2022/05/04 03:12:39;;;;;;;25.88;10.68;;;;;;;-144.47;59.97;53330.81;5046326;28;20033;-70
2022/05/04 03:15:06;;;;;;;21.42;10.27;;;;;;;-144.47;60.07;53305.00;5048580;28;20028;-70
2022/05/04 03:17:32;;;;;;;21.42;10.05;;;;;;;-144.47;60.09;53320.88;5046801;28;20032;-69
2022/05/04 03:19:58;;;;;;;20.33;10.18;;;;;;;-144.47;60.37;53295.06;5046679;28;20032;-69
2022/05/04 03:22:25;;;;;;;25.63;10.02;;;;;;;-144.47;60.09;53291.09;5046708;28;20025;-67
2022/05/04 03:24:50;;;;;;;23.50;10.20;;;;;;;-144.47;60.37;53338.75;5047359;28;20017;-70
2022/05/04 03:27:15;;;;;;;25.15;10.30;;;;;;;-144.47;60.34;53350.69;5046730;28;20029;-68
2022/05/04 03:29:41;;;;;;;29.50;10.93;;;;;;;-144.47;60.29;53338.75;5028460;28;20163;-69
2022/05/04 03:32:07;;;;;;;20.52;10.90;;;;;;;-144.47;60.41;53308.97;5043455;28;20033;-69
2022/05/04 03:34:32;;;;;;;21.95;10.82;;;;;;;-144.47;60.44;53320.88;5046169;28;20087;-68
2022/05/04 03:37:00;;;;;;;28.35;10.50;;;;;;;-144.47;60.66;53299.03;5046974;28;20021;-71
2022/05/04 03:39:27;;;;;;;23.98;10.68;;;;;;;-144.47;60.37;53316.91;5046885;28;20406;-70
2022/05/04 03:41:52;;;;;;;23.25;10.98;;;;;;;-144.47;60.08;53281.16;5046384;28;20069;-70
2022/05/04 03:44:17;;;;;;;23.52;10.93;;;;;;;-144.47;60.10;53352.66;5046871;28;20471;-71
2022/05/04 03:46:48;;;;;;;22.52;10.77;;;;;;;-144.47;60.34;53289.09;5045772;28;20111;-68
2022/05/04 03:49:16;;;;;;;26.17;11.38;;;;;;;-144.47;60.39;53312.94;5046256;28;20024;-68
2022/05/04 03:51:41;;;;;;;30.48;11.55;;;;;;;-144.47;60.26;53295.06;5044596;28;20109;-71
2022/05/04 03:54:08;;;;;;;25.63;11.65;;;;;;;-144.47;60.17;53348.69;5028932;28;20171;-70
2022/05/04 03:56:33;;;;;;;28.08;11.60;;;;;;;-144.47;59.90;53299.03;5043578;28;20036;-68
2022/05/04 03:58:59;;;;;;;27.05;12.05;;;;;;;-144.47;59.82;53330.81;5046432;28;20033;-71
2022/05/04 04:01:25;;;;;;;32.38;11.57;;;;;;;-144.47;59.90;53326.84;5045739;28;20465;-69
2022/05/04 04:03:50;;;;;;;25.70;11.40;;;;;;;-144.47;59.78;53324.84;5028688;28;20088;-70
2022/05/04 04:06:16;;;;;;;26.35;12.40;;;;;;;-144.47;59.67;53336.78;5046439;28;20041;-68
2022/05/04 04:08:41;;;;;;;29.60;12.02;;;;;;;-144.47;59.39;53332.81;5027810;28;20029;-72
2022/05/04 04:11:07;;;;;;;24.55;12.13;;;;;;;-144.47;59.81;53289.09;5046219;28;20108;-74
2022/05/04 04:13:32;;;;;;;23.00;11.38;;;;;;;-144.47;59.40;53297.03;5027305;28;20021;-69
2022/05/04 04:15:58;;;;;;;28.75;12.98;;;;;;;-144.47;59.39;53356.63;5047738;28;20017;-70
2022/05/04 04:18:25;;;;;;;33.97;11.35;;;;;;;-144.47;59.33;53297.03;5045778;28;20040;-70
2022/05/04 04:23:36;;;;;;;26.48;12.43;;;;;;;-144.47;59.74;53312.94;5049963;28;20119;-69
2022/05/04 04:26:03;;;;;;;27.90;11.85;;;;;;;-144.47;59.80;53318.91;5049944;28;20454;-71
2022/05/04 04:28:29;;;;;;;30.60;12.25;;;;;;;-144.47;59.63;53324.84;5032364;28;20507;-72
2022/05/04 04:30:55;;;;;;;27.45;11.50;;;;;;;-144.47;59.52;53344.72;5047826;28;20092;-67
2022/05/04 04:33:26;;;;;;;28.00;12.63;;;;;;;-144.47;59.60;53306.97;5050027;28;20045;-69
2022/05/04 04:35:54;;;;;;;27.02;13.05;;;;;;;-144.47;59.60;53318.91;5049876;28;20108;-70
2022/05/04 04:38:20;;;;;;;33.78;11.80;;;;;;;-144.47;59.72;53316.91;5049291;28;20131;-72
2022/05/04 04:40:46;;;;;;;34.92;12.60;;;;;;;-144.47;59.62;53301.03;5049151;28;20036;-70
2022/05/04 04:43:11;;;;;;;32.33;13.18;;;;;;;-144.47;59.52;53322.88;5049410;28;20013;-69
2022/05/04 04:45:36;;;;;;;27.50;12.55;;;;;;;-144.47;59.31;53340.75;5047048;28;20450;-68
2022/05/04 04:48:02;;;;;;;26.42;12.25;;;;;;;-144.47;58.90;53293.06;5031632;28;20033;-69
2022/05/04 04:50:27;;;;;;;19.25;11.40;;;;;;;-144.47;58.46;53320.88;5046687;28;20366;-70
2022/05/04 04:52:53;;;;;;;24.67;12.10;;;;;;;-144.47;58.09;53285.13;5049865;28;20045;-70
2022/05/04 04:55:18;;;;;;;44.88;13.07;;;;;;;-144.47;57.71;53303.00;5049439;28;20025;-71
2022/05/04 04:57:44;;;;;;;49.03;12.93;;;;;;;-144.47;57.36;53324.84;5049738;28;20096;-70
2022/05/04 05:00:10;;;;;;;29.17;12.05;;;;;;;-144.47;57.28;53340.75;5049118;28;20059;-70
2022/05/04 05:02:36;;;;;;;27.25;11.65;;;;;;;-144.47;57.15;53293.06;5049750;28;20082;-70
2022/05/04 05:05:02;;;;;;;99.57;14.52;;;;;;;-144.47;56.48;53314.91;5030881;28;20108;-70
2022/05/04 05:07:28;;;;;;;40.70;12.13;;;;;;;-144.47;56.42;53305.00;5049615;28;20093;-68
2022/05/04 05:09:53;;;;;;;32.92;12.13;;;;;;;-144.47;56.22;53314.91;5050112;28;20047;-68
2022/05/04 05:12:21;;;;;;;31.00;13.13;;;;;;;-144.47;56.39;53342.72;5049227;28;20029;-71
2022/05/04 05:17:32;;;;;;;27.83;12.73;;;;;;;-144.47;56.79;53285.13;5049680;28;20032;-69
2022/05/04 05:19:58;;;;;;;34.78;12.80;;;;;;;-144.47;57.02;53312.94;5042437;28;20117;-69
2022/05/04 05:22:23;;;;;;;27.58;11.35;;;;;;;-144.47;56.74;53314.91;5049442;28;20090;-72
2022/05/04 05:24:48;;;;;;;29.92;12.55;;;;;;;-144.47;57.04;53316.91;5050549;28;20106;-71
2022/05/04 05:27:14;;;;;;;25.73;12.02;;;;;;;-144.47;57.21;53306.97;5048986;28;20021;-71
2022/05/04 05:29:40;;;;;;;32.00;12.40;;;;;;;-144.47;57.61;53287.13;5049895;28;20041;-71
2022/05/04 05:32:05;;;;;;;25.40;12.27;;;;;;;-144.47;57.75;53295.06;5048388;28;20025;-73
2022/05/04 05:34:33;;;;;;;40.65;14.63;;;;;;;-144.47;57.90;53330.81;5050944;28;20120;-70
2022/05/04 05:36:59;;;;;;;32.83;12.68;;;;;;;-144.47;57.60;53293.06;5052152;28;20067;-71
2022/05/04 05:39:24;;;;;;;32.60;12.60;;;;;;;-144.47;57.06;53305.00;5050591;28;20378;-71
2022/05/04 05:41:50;;;;;;;28.08;13.10;;;;;;;-144.47;56.66;53334.78;5048898;28;20429;-70
2022/05/04 05:44:15;;;;;;;45.22;16.25;;;;;;;-144.47;55.59;53289.09;5050984;28;20072;-69
2022/05/04 05:46:40;;;;;;;32.92;12.73;;;;;;;-144.47;55.65;53291.09;5052556;28;20045;-72
2022/05/04 05:49:06;;;;;;;24.67;12.38;;;;;;;-144.47;55.55;53267.25;5055330;28;20102;-71
2022/05/04 05:51:31;;;;;;;40.60;12.60;;;;;;;-144.47;55.13;53312.94;5048528;28;20036;-70
2022/05/04 05:53:56;;;;;;;27.15;11.93;;;;;;;-144.47;54.23;53281.16;5049681;28;20107;-68
2022/05/04 05:56:22;;;;;;;25.30;11.85;;;;;;;-144.47;54.10;53328.81;5048971;28;20112;-71
2022/05/04 05:58:47;;;;;;;26.23;11.30;;;;;;;-144.47;54.25;53277.19;5047966;28;20028;-70
2022/05/04 06:01:12;;;;;;;27.95;11.20;;;;;;;-144.47;54.47;53277.19;5106782;22;20043;-69
2022/05/04 06:03:38;;;;;;;26.00;11.05;;;;;;;-144.47;54.23;53281.16;5079403;28;20081;-68
2022/05/04 06:06:03;;;;;;;28.83;11.10;;;;;;;-144.47;55.01;53261.28;5083748;28;20040;-69
2022/05/04 06:08:28;;;;;;;27.40;11.93;;;;;;;-144.47;54.89;53271.22;5076190;28;20025;-68
2022/05/04 06:10:53;;;;;;;28.25;12.25;;;;;;;-144.47;54.85;53253.34;5064617;28;20028;-69
2022/05/04 06:13:19;;;;;;;29.10;11.88;;;;;;;-144.47;54.91;53279.16;5059969;28;20017;-68
2022/05/04 06:15:44;;;;;;;22.70;11.70;;;;;;;-144.47;54.87;53305.00;5050766;28;20021;-67
2022/05/04 06:18:10;;;;;;;29.13;11.68;;;;;;;-144.47;55.09;53275.19;5058102;28;20063;-70
2022/05/04 06:20:35;;;;;;;30.95;11.15;;;;;;;-144.47;55.18;53275.19;5052415;28;20115;-68
2022/05/04 06:23:00;;;;;;;20.92;11.25;;;;;;;-144.47;54.90;53289.09;5054971;28;20058;-69
2022/05/04 06:25:25;;;;;;;29.30;10.93;;;;;;;-144.47;54.32;53287.13;5056911;28;20470;-67
2022/05/04 06:27:51;;;;;;;33.90;11.48;;;;;;;-144.47;53.91;53265.25;5062247;28;20028;-69
2022/05/04 06:35:43;;;;;;;23.20;11.27;;;;;;;-144.47;54.23;53293.06;5058167;28;20142;-69
2022/05/04 06:38:10;;;;;;;30.83;11.10;;;;;;;-144.47;54.30;53305.00;5058444;28;20596;-70
2022/05/04 06:40:36;;;;;;;20.83;10.40;;;;;;;-144.47;54.00;53261.28;5038777;28;20061;-68
2022/05/04 06:43:01;;;;;;;24.25;10.93;;;;;;;-144.47;53.80;53245.41;5055796;28;20103;-70
2022/05/04 06:45:27;;;;;;;22.45;11.60;;;;;;;-144.47;53.94;53316.91;5060284;28;20040;-69
2022/05/04 06:47:52;;;;;;;22.67;10.02;;;;;;;-144.47;53.86;53291.09;5050826;28;20025;-69
2022/05/04 06:50:17;;;;;;;29.45;11.73;;;;;;;-144.47;53.88;53299.03;5048290;28;20040;-68
2022/05/04 06:52:42;;;;;;;19.27;9.80;;;;;;;-144.47;54.19;53271.22;5053073;28;20033;-70
2022/05/04 06:55:09;;;;;;;27.30;11.98;;;;;;;-144.47;53.98;53301.03;5057202;28;20508;-67
2022/05/04 06:57:36;;;;;;;36.92;12.13;;;;;;;-144.47;54.38;53310.94;5060268;28;20113;-69
2022/05/04 07:00:05;;;;;;;37.92;11.32;;;;;;;-144.47;54.92;53261.28;5060551;28;20454;-69
2022/05/04 07:02:33;;;;;;;28.13;12.10;;;;;;;-144.47;57.69;53245.41;5041514;28;20075;-67
2022/05/04 07:04:59;;;;;;;34.13;11.50;;;;;;;-144.47;57.80;53299.03;5052498;28;20032;-69
2022/05/04 07:07:24;;;;;;;34.63;13.38;;;;;;;-144.47;58.26;53293.06;5056158;28;20096;-68
2022/05/04 07:09:49;;;;;;;39.72;13.00;;;;;;;-144.47;58.57;53269.22;5057993;28;20052;-68
2022/05/04 07:12:15;;;;;;;33.17;12.43;;;;;;;-144.47;58.89;53305.00;5054603;28;20108;-69
2022/05/04 07:14:40;;;;;;;31.88;13.30;;;;;;;-144.47;59.28;53334.78;5052480;28;20055;-68
2022/05/04 07:17:05;;;;;;;30.67;13.65;;;;;;;-144.47;59.71;53289.09;5052015;28;20036;-70
2022/05/04 07:19:31;;;;;;;35.58;13.52;;;;;;;-144.47;59.45;53308.97;5059281;28;20029;-69
2022/05/04 07:21:56;;;;;;;56.85;15.80;;;;;;;-144.47;59.75;53281.16;5061884;28;20500;-69
2022/05/04 07:24:21;;;;;;;57.50;14.73;;;;;;;-144.47;60.31;53281.16;5057891;28;20083;-68
2022/05/04 07:26:47;;;;;;;42.88;14.57;;;;;;;-144.47;61.53;53283.13;5056872;28;20024;-69
2022/05/04 07:29:13;;;;;;;38.40;13.82;;;;;;;-144.47;59.77;53253.34;5049745;28;20029;-71
2022/05/04 07:31:38;;;;;;;27.75;12.40;;;;;;;-144.47;59.41;53271.22;5051088;28;20399;-67
2022/05/04 07:34:03;;;;;;;29.23;12.40;;;;;;;-144.47;60.00;53303.00;5055649;28;20047;-68
2022/05/04 07:36:29;;;;;;;30.50;14.27;;;;;;;-144.47;61.09;53297.03;5059823;28;20047;-70
2022/05/04 07:38:54;;;;;;;42.28;14.27;;;;;;;-144.47;60.21;53289.09;5057716;28;20025;-70
2022/05/04 07:44:03;;;;;;;31.60;13.02;;;;;;;-144.47;60.47;53320.88;5047060;28;20512;-68
2022/05/04 07:46:28;;;;;;;33.95;12.45;;;;;;;-144.47;60.54;53312.94;5031631;28;20029;-70
2022/05/04 07:48:55;;;;;;;37.72;14.38;;;;;;;-144.47;60.95;53336.78;5061542;28;20019;-69
2022/05/04 07:51:21;;;;;;;31.15;12.52;;;;;;;-144.47;60.60;53318.91;5053646;28;20055;-68
2022/05/04 07:53:46;;;;;;;27.52;12.70;;;;;;;-144.47;61.05;53305.00;5039482;28;20030;-69
2022/05/04 07:56:11;;;;;;;25.67;12.95;;;;;;;-144.47;60.92;53297.03;5051325;28;20036;-71
2022/05/04 07:58:36;;;;;;;34.22;12.70;;;;;;;-144.47;61.07;53306.97;5058286;28;20494;-71
2022/05/04 08:06:29;;;;;;;31.45;13.38;;;;;;;-144.47;61.50;53299.03;5047324;28;20055;-68
2022/05/04 08:08:55;;;;;;;26.83;11.95;;;;;;;-144.47;60.33;53303.00;5056458;28;20025;-69
2022/05/04 08:11:20;;;;;;;30.60;11.98;;;;;;;-144.47;60.65;53291.09;5050661;28;20040;-66
2022/05/04 08:13:45;;;;;;;31.23;12.43;;;;;;;-144.47;60.71;53293.06;5060562;28;20389;-70
2022/05/04 08:16:11;;;;;;;25.20;13.57;;;;;;;-144.47;61.66;53330.81;5047604;28;20062;-69
2022/05/04 08:18:39;;;;;;;30.65;13.00;;;;;;;-144.47;61.31;53297.03;5051480;28;20021;-71
2022/05/04 08:21:04;;;;;;;24.27;11.70;;;;;;;-144.47;62.00;53303.00;5048083;28;20045;-69
2022/05/04 08:23:30;;;;;;;28.52;11.77;;;;;;;-144.47;61.94;53308.97;5055617;28;20067;-70
2022/05/04 08:25:56;;;;;;;24.55;12.13;;;;;;;-144.47;61.80;53293.06;5056562;28;20487;-70
2022/05/04 08:28:21;;;;;;;31.50;12.38;;;;;;;-144.47;61.98;53287.13;5041913;28;20457;-68
2022/05/04 08:30:47;;;;;;;22.90;12.73;;;;;;;-144.47;62.87;53303.00;5053476;28;20100;-68
2022/05/04 08:33:12;;;;;;;27.48;12.38;;;;;;;-144.47;62.91;53293.06;5061313;28;20074;-69
2022/05/04 08:35:37;;;;;;;35.85;12.95;;;;;;;-144.47;63.28;53305.00;5041149;28;20040;-68
2022/05/04 08:38:03;;;;;;;24.42;10.95;;;;;;;-144.47;62.11;53318.91;5055251;28;20485;-68
2022/05/04 08:40:29;;;;;;;32.75;12.65;;;;;;;-144.47;62.72;53324.84;5047547;28;20054;-69
2022/05/04 08:42:57;;;;;;;28.35;11.10;;;;;;;-144.47;62.81;53348.69;5032130;28;20020;-68
2022/05/04 08:45:23;;;;;;;31.23;11.57;;;;;;;-144.47;63.41;53318.91;5055395;28;20036;-68
2022/05/04 08:47:49;;;;;;;30.52;12.93;;;;;;;-144.47;64.04;53328.81;5058150;28;20033;-68
2022/05/04 08:50:17;;;;;;;23.20;11.57;;;;;;;-144.47;63.65;53328.81;5055155;28;20512;-68
2022/05/04 08:52:54;;;;;;;31.13;12.05;;;;;;;-144.47;63.96;53308.97;5055257;28;20063;-67
2022/05/04 08:55:24;;;;;;;46.08;12.43;;;;;;;-144.47;64.20;53328.81;5048702;28;20428;-69
2022/05/04 08:57:51;;;;;;;25.75;11.77;;;;;;;-144.47;64.06;53332.81;5057181;28;20041;-68
2022/05/04 09:00:17;;;;;;;29.13;13.32;;;;;;;-144.47;63.98;53308.97;5048907;28;20062;-67
2022/05/04 09:02:43;;;;;;;22.83;11.02;;;;;;;-144.47;63.70;53303.00;5054997;28;20029;-67
2022/05/04 09:05:25;;;;;;;26.67;10.73;;;;;;;-144.47;63.26;53305.00;5030739;28;20040;-69
2022/05/04 09:07:53;;;;;;;35.88;11.38;;;;;;;-144.47;63.72;53320.88;5059168;28;20083;-70
2022/05/04 09:10:32;;;;;;;25.55;11.95;;;;;;;-144.47;63.68;53299.03;5058181;28;20015;-67
2022/05/04 09:12:59;;;;;;;;;;;;;;;-144.47;62.80;53273.22;5057002;28;20009;-69
2022/05/04 09:15:31;;;;;;;29.92;12.20;;;;;;;-144.47;63.38;53271.22;5055623;28;19909;-69
2022/05/04 09:18:02;;;;;;;23.80;10.95;;;;;;;-144.47;63.05;53297.03;5054566;28;20075;-68
2022/05/04 09:20:45;;;;;;;22.20;11.32;;;;;;;-144.47;62.85;53308.97;5058671;28;20052;-68
2022/05/04 09:23:23;;;;;;;22.90;10.85;;;;;;;-144.47;63.02;53314.91;5052101;28;20029;-70
2022/05/04 09:25:57;;;;;;;25.83;10.32;;;;;;;-144.47;62.78;53285.13;5054772;28;20462;-69
2022/05/04 09:28:24;;;;;;;22.88;10.55;;;;;;;-144.47;62.51;53279.16;5060167;28;20029;-69
2022/05/04 09:30:55;;;;;;;21.60;10.55;;;;;;;-144.47;62.26;53269.22;5035843;28;20079;-70
2022/05/04 09:33:28;;;;;;;24.48;10.63;;;;;;;-144.47;62.73;53305.00;5050630;28;20044;-70
2022/05/04 09:35:58;;;;;;;22.00;9.98;;;;;;;-144.47;62.32;53279.16;5056916;28;20577;-71
2022/05/04 09:46:46;;;;;;;22.50;11.10;;;;;;;-144.47;64.25;53299.03;5057875;28;20036;-71
2022/05/04 09:49:16;;;;;;;20.60;10.60;;;;;;;-144.47;64.29;53269.22;5062217;28;20089;-69
2022/05/04 09:51:50;;;;;;;19.88;10.30;;;;;;;-144.47;64.11;53312.94;5055396;28;20040;-69
2022/05/04 09:54:27;;;;;;;21.55;10.95;;;;;;;-144.47;64.99;53289.09;5062329;28;20059;-70
2022/05/04 09:57:01;;;;;;;18.52;9.90;;;;;;;-144.47;64.49;53295.06;5054273;28;20029;-69
2022/05/04 09:59:31;;;;;;;23.67;9.75;;;;;;;-144.47;63.83;53289.09;5054640;28;20035;-69
2022/05/04 10:02:03;;;;;;;20.15;9.52;;;;;;;-144.47;63.22;53324.84;5042108;28;20029;-69
2022/05/04 10:04:29;;;;;;;22.38;10.70;;;;;;;-144.47;62.79;53301.03;5053622;28;20049;-69
2022/05/04 10:06:54;;;;;;;23.15;9.90;;;;;;;-144.47;62.87;53279.16;5061085;28;20031;-68
2022/05/04 10:09:21;;;;;;;19.98;9.85;;;;;;;-144.47;62.92;53308.97;5053124;28;20029;-68
2022/05/04 10:11:47;;;;;;;21.95;11.07;;;;;;;-144.47;63.23;53316.91;5054743;28;20040;-70
2022/05/04 10:14:15;;;;;;;23.77;11.07;;;;;;;-144.47;63.08;53271.22;5061296;28;20025;-68
2022/05/04 10:16:52;;;;;;;22.08;10.32;;;;;;;-144.47;62.54;53316.91;5058535;28;20036;-70
2022/05/04 10:19:33;;;;;;;19.73;10.80;;;;;;;-144.47;61.36;53251.34;5049631;28;20465;-66
2022/05/04 10:22:00;;;;;;;16.00;9.50;;;;;;;-144.47;60.32;53287.13;5050331;28;20066;-68
2022/05/04 10:24:35;;;;;;;24.88;11.02;;;;;;;-144.47;59.54;53293.06;5059103;28;20051;-66
2022/05/04 10:27:14;;;;;;;15.77;9.30;;;;;;;-144.47;57.93;53287.13;5048843;28;20036;-66
2022/05/04 10:32:33;;;;;;;17.95;9.95;;;;;;;-144.47;57.46;53245.41;5048190;28;19962;-68
2022/05/04 10:35:11;;;;;;;21.67;10.82;;;;;;;-144.47;56.79;53285.13;5046533;28;20060;-69
2022/05/04 10:38:02;;;;;;;20.23;10.43;;;;;;;-144.47;56.09;53299.03;5055784;28;20033;-68
2022/05/04 10:40:36;;;;;;;17.25;10.23;;;;;;;-144.47;55.45;53261.28;5057065;28;20025;-67
2022/05/04 10:43:05;;;;;;;19.35;10.05;;;;;;;-144.47;56.54;53249.38;5048525;28;20027;-68
2022/05/04 10:45:31;;;;;;;;;;;;;;;-144.47;56.26;53263.28;5061035;28;20118;-69
2022/05/04 10:48:18;;;;;;;23.73;10.57;;;;;;;-144.47;55.35;53265.25;5052338;28;20365;-70
2022/05/04 10:51:11;;;;;;;21.95;10.80;;;;;;;-144.47;55.36;53215.59;5052764;28;20069;-66
2022/05/04 10:53:40;;;;;;;26.05;11.20;;;;;;;-144.47;55.37;53287.13;5030822;28;20475;-70
2022/05/04 10:56:12;;;;;;;33.38;15.52;;;;;;;-144.47;54.50;53271.22;5058100;28;20025;-66
2022/05/04 10:58:43;;;;;;;28.85;13.07;;;;;;;-144.47;53.64;53277.19;5049292;28;20032;-68
2022/05/04 11:01:14;;;;;;;21.10;12.57;;;;;;;-144.47;54.87;53285.13;5054471;28;20021;-68
2022/05/04 11:04:10;;;;;;;34.30;12.05;;;;;;;-144.47;53.74;53251.34;5051555;28;20083;-67
2022/05/04 11:06:38;;;;;;;22.35;12.00;;;;;;;-144.47;53.80;53251.34;5058374;28;20036;-70
2022/05/04 11:09:10;;;;;;;21.70;11.43;;;;;;;-144.47;53.07;53251.34;5054002;28;20078;-70
2022/05/04 11:11:37;;;;;;;27.50;11.43;;;;;;;-144.47;52.54;53261.28;5056221;28;20387;-70
2022/05/04 11:14:03;;;;;;;26.13;11.20;;;;;;;-144.47;52.77;53275.19;5054524;28;20028;-70
2022/05/04 11:16:28;;;;;;;25.83;11.38;;;;;;;-144.47;51.95;53239.44;5055476;28;20116;-69
2022/05/04 11:18:55;;;;;;;34.00;11.63;;;;;;;-144.47;52.33;53285.13;5059037;28;20112;-71
2022/05/04 11:21:21;;;;;;;25.38;10.88;;;;;;;-144.47;51.85;53237.44;5053482;28;20149;-68
2022/05/04 11:23:49;;;;;;;21.10;10.15;;;;;;;-144.47;50.93;53281.16;5050626;28;20120;-69
2022/05/04 11:26:23;;;;;;;21.58;10.32;;;;;;;-144.47;50.60;53253.34;5057664;28;20028;-69
2022/05/04 11:28:50;;;;;;;19.50;9.32;;;;;;;-144.47;48.68;53219.56;5055079;28;20021;-68
2022/05/04 11:31:16;;;;;;;21.58;9.35;;;;;;;-144.47;47.93;53221.56;5031063;28;20017;-69
2022/05/04 11:33:43;;;;;;;19.73;8.75;;;;;;;-144.47;47.91;53201.69;5050484;28;20021;-68
2022/05/04 11:36:09;;;;;;;20.15;8.90;;;;;;;-144.47;48.14;53251.34;5055763;28;20029;-70
2022/05/04 11:38:34;;;;;;;22.77;9.27;;;;;;;-144.47;47.53;53177.88;5054170;28;20032;-70